Time;durP1;ratioP1;P1;durP2;ratioP2;P2;SDS_P1;SDS_P2;PMS_P1;PMS_P2;Temp;Humidity;BMP_temperature;BMP_pressure;BME280_temperature;BME280_humidity;BME280_pressure;Samples;Min_cycle;Max_cycle;Signal;HPM_P1;HPM_P2
2024/02/25 00:00:09;;;;;;;17.02;8.13;;;;;;;2.57;100.00;95103.28;1022264;29;20259;-63
2024/02/25 00:00:39;;;;;;;17.77;9.13;;;;;;;2.54;100.00;95101.13;1023160;28;20267;-63
2024/02/25 00:01:10;;;;;;;16.27;10.25;;;;;;;2.50;100.00;95104.41;1026923;28;20090;-63
2024/02/25 00:01:40;;;;;;;22.92;9.63;;;;;;;2.50;100.00;95105.19;1030823;28;20034;-63
2024/02/25 00:02:11;;;;;;;17.05;9.52;;;;;;;2.52;100.00;95108.38;1030593;28;20053;-63
2024/02/25 00:02:41;;;;;;;17.38;9.38;;;;;;;2.50;100.00;95110.38;1030686;28;20465;-63
2024/02/25 00:03:12;;;;;;;18.15;8.65;;;;;;;2.51;100.00;95108.56;1030769;28;20136;-64
2024/02/25 00:03:42;;;;;;;15.65;8.48;;;;;;;2.49;100.00;95108.81;1030514;28;20069;-63
2024/02/25 00:04:13;;;;;;;15.77;8.98;;;;;;;2.46;100.00;95103.31;1030495;28;20034;-63
2024/02/25 00:04:43;;;;;;;17.42;9.23;;;;;;;2.49;100.00;95108.81;1026722;28;20239;-63
2024/02/25 00:05:14;;;;;;;14.50;9.20;;;;;;;2.49;100.00;95102.84;1030742;28;20046;-63
2024/02/25 00:05:44;;;;;;;19.75;9.65;;;;;;;2.48;100.00;95109.84;1037992;28;20431;-63
2024/02/25 00:06:15;;;;;;;21.55;10.00;;;;;;;2.42;100.00;95102.97;1030612;28;20026;-63
2024/02/25 00:06:45;;;;;;;21.58;10.73;;;;;;;2.47;100.00;95110.06;1029352;28;20641;-61
2024/02/25 00:07:16;;;;;;;24.92;10.15;;;;;;;2.45;100.00;95112.88;1028326;28;20058;-63
2024/02/25 00:07:46;;;;;;;19.17;9.73;;;;;;;2.46;100.00;95118.84;1018937;28;20117;-63
2024/02/25 00:08:17;;;;;;;16.38;9.50;;;;;;;2.46;100.00;95114.44;1026487;28;20557;-63
2024/02/25 00:08:47;;;;;;;16.27;9.50;;;;;;;2.45;100.00;95123.25;1030441;28;20466;-63
2024/02/25 00:09:18;;;;;;;21.73;9.98;;;;;;;2.45;100.00;95118.06;1030903;28;20073;-63
2024/02/25 00:09:48;;;;;;;15.40;8.68;;;;;;;2.46;100.00;95124.81;1034753;28;20034;-63
2024/02/25 00:10:19;;;;;;;19.13;10.70;;;;;;;2.45;100.00;95128.41;1038149;28;20029;-62
2024/02/25 00:10:50;;;;;;;18.80;10.23;;;;;;;2.46;100.00;95127.38;1037954;28;20071;-64
2024/02/25 00:11:20;;;;;;;20.40;10.73;;;;;;;2.44;100.00;95126.81;1038677;28;20025;-63
2024/02/25 00:11:51;;;;;;;18.73;9.48;;;;;;;2.30;100.00;95107.34;1038731;28;20018;-63
2024/02/25 00:12:23;;;;;;;25.50;11.77;;;;;;;2.42;100.00;95134.03;1034672;28;20022;-63
2024/02/25 00:12:53;;;;;;;17.10;9.77;;;;;;;2.36;100.00;95124.59;1034496;28;20018;-63
2024/02/25 00:13:24;;;;;;;17.90;9.52;;;;;;;2.42;100.00;95134.03;1038780;28;20837;-63
2024/02/25 00:13:55;;;;;;;16.10;8.95;;;;;;;2.44;100.00;95137.19;1030793;28;20029;-62
2024/02/25 00:14:29;;;;;;;16.58;9.25;;;;;;;2.45;100.00;95131.00;1034648;28;20030;-63
2024/02/25 00:15:00;;;;;;;18.55;8.65;;;;;;;2.46;100.00;95129.97;1034658;28;20075;-63
2024/02/25 00:15:30;;;;;;;16.08;8.50;;;;;;;2.49;100.00;95134.72;1037839;28;20277;-63
2024/02/25 00:16:00;;;;;;;15.60;9.07;;;;;;;2.50;100.00;95141.44;1043615;28;20119;-63
2024/02/25 00:16:31;;;;;;;16.40;8.48;;;;;;;2.49;100.00;95137.31;1039421;28;20084;-63
2024/02/25 00:17:01;;;;;;;16.45;9.27;;;;;;;2.43;100.00;95133.03;1039349;28;20029;-63
2024/02/25 00:17:32;;;;;;;16.20;9.20;;;;;;;2.48;100.00;95138.31;1035444;28;20096;-63
2024/02/25 00:18:03;;;;;;;15.35;8.88;;;;;;;2.49;100.00;95132.13;1039452;28;20014;-63
2024/02/25 00:18:33;;;;;;;15.88;8.18;;;;;;;2.51;100.00;95135.25;1039362;28;20022;-63
2024/02/25 00:19:04;;;;;;;20.42;9.30;;;;;;;2.51;100.00;95135.25;1039563;28;20021;-63
2024/02/25 00:19:34;;;;;;;18.50;9.50;;;;;;;2.51;100.00;95137.06;1035188;28;20025;-63
2024/02/25 00:20:05;;;;;;;16.45;8.55;;;;;;;2.51;100.00;95137.84;1031670;28;20029;-63
2024/02/25 00:20:36;;;;;;;19.48;8.88;;;;;;;2.50;100.00;95140.66;1030504;28;20109;-63
2024/02/25 00:21:06;;;;;;;15.45;9.10;;;;;;;2.50;100.00;95136.28;1027584;28;20804;-63
2024/02/25 00:21:37;;;;;;;17.13;9.55;;;;;;;2.50;100.00;95138.88;1031414;28;20030;-63
2024/02/25 00:22:07;;;;;;;22.05;9.88;;;;;;;2.51;100.00;95145.59;1027671;28;20485;-63
2024/02/25 00:22:38;;;;;;;19.13;9.77;;;;;;;2.50;100.00;95141.44;1033650;28;20121;-63
2024/02/25 00:23:08;;;;;;;18.02;8.75;;;;;;;2.51;100.00;95137.84;1035622;28;20081;-63
2024/02/25 00:23:39;;;;;;;16.48;8.57;;;;;;;2.51;100.00;95143.03;1035098;28;20049;-63
2024/02/25 00:24:09;;;;;;;19.50;8.75;;;;;;;2.56;100.00;95144.94;1031140;28;20069;-64
2024/02/25 00:24:40;;;;;;;16.80;8.80;;;;;;;2.50;100.00;95138.09;1023118;28;20098;-62
2024/02/25 00:25:10;;;;;;;19.48;9.98;;;;;;;2.53;100.00;95141.00;1023379;28;20110;-63
2024/02/25 00:25:41;;;;;;;17.33;8.77;;;;;;;2.55;100.00;95151.94;1025031;28;20027;-63
2024/02/25 00:26:11;;;;;;;16.05;9.02;;;;;;;2.56;100.00;95144.94;1031257;28;20023;-63
2024/02/25 00:26:42;;;;;;;21.63;8.93;;;;;;;2.56;100.00;95150.91;1031307;28;20053;-63
2024/02/25 00:27:12;;;;;;;17.70;9.13;;;;;;;2.57;100.00;95149.88;1027585;28;20047;-62
2024/02/25 00:27:43;;;;;;;18.60;9.15;;;;;;;2.53;100.00;95143.59;1034994;28;20049;-63
2024/02/25 00:28:13;;;;;;;16.52;9.23;;;;;;;2.57;100.00;95147.31;1031346;28;20046;-63
2024/02/25 00:28:43;;;;;;;16.13;8.48;;;;;;;2.56;100.00;95150.91;1031271;28;20524;-63
2024/02/25 00:29:15;;;;;;;14.15;8.60;;;;;;;2.56;100.00;95155.31;1031177;28;20029;-63
2024/02/25 00:29:45;;;;;;;17.42;8.10;;;;;;;2.57;100.00;95156.88;1031370;28;20141;-64
2024/02/25 00:30:16;;;;;;;16.90;8.63;;;;;;;2.58;100.00;95154.06;1031155;28;20268;-63
2024/02/25 00:30:46;;;;;;;17.80;8.55;;;;;;;2.57;100.00;95149.09;1037112;28;20018;-63
2024/02/25 00:31:17;;;;;;;15.65;8.15;;;;;;;2.56;100.00;95145.72;1039654;28;20036;-63
2024/02/25 00:31:48;;;;;;;13.07;8.20;;;;;;;2.59;100.00;95155.63;1031112;28;20500;-63
2024/02/25 00:32:18;;;;;;;19.30;8.68;;;;;;;2.60;100.00;95162.38;1027135;28;20073;-63
2024/02/25 00:32:48;;;;;;;15.95;8.40;;;;;;;2.58;100.00;95151.47;1029420;28;20030;-63
2024/02/25 00:33:19;;;;;;;18.20;8.88;;;;;;;2.59;100.00;95150.47;1027192;28;20027;-63
2024/02/25 00:33:49;;;;;;;14.57;8.52;;;;;;;2.57;100.00;95149.09;1035173;28;20052;-63
2024/02/25 00:34:20;;;;;;;19.63;8.60;;;;;;;2.54;100.00;95150.34;1042077;28;20025;-63
2024/02/25 00:34:50;;;;;;;15.00;8.10;;;;;;;2.54;100.00;95152.94;1035253;28;20022;-63
2024/02/25 00:35:21;;;;;;;16.75;8.85;;;;;;;2.55;100.00;95149.34;1035250;28;20025;-63
2024/02/25 00:35:51;;;;;;;14.15;8.63;;;;;;;2.51;100.00;95139.66;1035009;28;20034;-63
2024/02/25 00:36:22;;;;;;;17.92;9.10;;;;;;;2.53;100.00;95151.38;1039271;28;20033;-63
2024/02/25 00:36:52;;;;;;;13.98;8.35;;;;;;;2.47;100.00;95141.91;1031217;28;20033;-63
2024/02/25 00:37:22;;;;;;;16.75;8.00;;;;;;;2.39;100.00;95131.91;1023167;29;20038;-63
2024/02/25 00:37:53;;;;;;;13.20;7.13;;;;;;;2.47;100.00;95141.91;1028978;28;20070;-63
2024/02/25 00:38:23;;;;;;;14.80;8.13;;;;;;;2.54;100.00;95150.34;1031077;28;20018;-63
2024/02/25 00:38:54;;;;;;;15.20;8.63;;;;;;;2.51;100.00;95150.78;1027103;28;20087;-63
2024/02/25 00:39:24;;;;;;;13.45;7.80;;;;;;;2.50;100.00;95151.03;1033205;28;20030;-63
2024/02/25 00:39:55;;;;;;;15.60;7.90;;;;;;;2.51;100.00;95150.78;1035130;28;20030;-63
2024/02/25 00:40:25;;;;;;;14.13;7.90;;;;;;;2.48;100.00;95151.25;1034688;28;20084;-63
2024/02/25 00:40:56;;;;;;;17.95;9.07;;;;;;;2.49;100.00;95152.06;1031279;28;20490;-62
2024/02/25 00:41:26;;;;;;;14.85;7.72;;;;;;;2.44;100.00;95151.94;1035164;28;20104;-63
2024/02/25 00:42:01;;;;;;;14.93;8.35;;;;;;;2.49;100.00;95152.84;1025902;28;20015;-63
2024/02/25 00:42:31;;;;;;;16.70;8.02;;;;;;;2.50;100.00;95151.81;1031999;28;20033;-63
2024/02/25 00:43:02;;;;;;;15.07;7.47;;;;;;;2.49;100.00;95152.84;1039225;28;20264;-63
2024/02/25 00:43:32;;;;;;;16.48;8.73;;;;;;;2.50;100.00;95157.00;1040346;28;20026;-63
2024/02/25 00:44:03;;;;;;;14.50;8.23;;;;;;;2.53;100.00;95150.56;1043301;28;20017;-64
2024/02/25 00:44:35;;;;;;;14.18;7.68;;;;;;;2.51;100.00;95148.19;1043387;28;20183;-63
2024/02/25 00:45:06;;;;;;;14.27;7.90;;;;;;;2.50;100.00;95138.88;1043595;28;20496;-63
2024/02/25 00:45:37;;;;;;;16.50;8.00;;;;;;;2.54;100.00;95142.56;1039378;28;20298;-63
2024/02/25 00:46:07;;;;;;;13.75;7.75;;;;;;;2.55;100.00;95149.34;1031223;28;20053;-63
2024/02/25 00:46:38;;;;;;;18.23;8.40;;;;;;;2.54;100.00;95146.97;1031371;28;20030;-63
2024/02/25 00:47:08;;;;;;;16.20;8.07;;;;;;;2.56;100.00;95145.72;1035623;28;20390;-63
2024/02/25 00:47:39;;;;;;;15.82;7.82;;;;;;;2.57;100.00;95147.31;1039820;28;20080;-63
2024/02/25 00:48:09;;;;;;;14.27;7.35;;;;;;;2.57;100.00;95147.31;1039679;28;20068;-63
2024/02/25 00:48:40;;;;;;;15.32;7.75;;;;;;;2.57;100.00;95151.69;1039377;28;20463;-63
2024/02/25 00:49:10;;;;;;;10.38;7.60;;;;;;;2.56;100.00;95150.91;1027566;28;20081;-63
2024/02/25 00:49:41;;;;;;;14.85;6.85;;;;;;;2.56;100.00;95150.91;1027531;28;20019;-64
2024/02/25 00:50:12;;;;;;;14.65;6.93;;;;;;;2.58;100.00;95153.25;1032338;28;20094;-63
2024/02/25 00:50:42;;;;;;;12.73;7.00;;;;;;;2.56;100.00;95148.31;1031609;28;20273;-63
2024/02/25 00:51:13;;;;;;;16.23;6.93;;;;;;;2.54;100.00;95155.53;1035778;28;20019;-63
2024/02/25 00:51:44;;;;;;;13.15;6.93;;;;;;;2.46;100.00;95135.16;1035875;28;20050;-63
2024/02/25 00:52:14;;;;;;;14.77;7.70;;;;;;;2.52;100.00;95149.00;1034877;28;20493;-63
2024/02/25 00:52:45;;;;;;;10.05;6.72;;;;;;;2.57;100.00;95152.47;1031257;28;20459;-63
2024/02/25 00:53:16;;;;;;;18.08;7.20;;;;;;;2.58;100.00;95153.25;1027665;28;20038;-63
2024/02/25 00:53:47;;;;;;;9.80;5.93;;;;;;;2.57;100.00;95152.47;1034125;28;20049;-64
2024/02/25 00:54:18;;;;;;;12.52;7.00;;;;;;;2.58;100.00;95154.06;1035746;28;20269;-63
2024/02/25 00:54:48;;;;;;;12.45;6.55;;;;;;;2.56;100.00;95157.91;1031621;28;20461;-62
2024/02/25 00:55:19;;;;;;;13.35;7.03;;;;;;;2.56;100.00;95150.13;1027904;28;20277;-63
2024/02/25 00:55:49;;;;;;;13.85;7.18;;;;;;;2.59;100.00;95155.63;1035612;28;20030;-62
2024/02/25 00:56:20;;;;;;;12.10;6.50;;;;;;;2.58;100.00;95154.06;1031286;28;20556;-63
2024/02/25 00:56:50;;;;;;;10.95;6.50;;;;;;;2.58;100.00;95153.25;1027066;28;20068;-63
2024/02/25 00:57:21;;;;;;;12.25;7.18;;;;;;;2.56;100.00;95144.94;1031633;28;20022;-63
2024/02/25 00:57:51;;;;;;;12.50;6.82;;;;;;;2.57;100.00;95157.66;1031281;28;20030;-63
2024/02/25 00:58:22;;;;;;;12.23;6.57;;;;;;;2.56;100.00;95158.69;1027463;28;20517;-64
2024/02/25 00:58:52;;;;;;;14.82;7.07;;;;;;;2.52;100.00;95154.19;1035175;28;20032;-63
2024/02/25 00:59:23;;;;;;;15.68;7.65;;;;;;;2.52;100.00;95151.59;1027282;28;20042;-63
2024/02/25 00:59:53;;;;;;;14.82;7.10;;;;;;;2.51;100.00;95155.97;1027296;28;20492;-63
2024/02/25 01:00:24;;;;;;;12.10;6.88;;;;;;;2.45;100.00;95151.72;1026577;28;20339;-64
2024/02/25 01:00:54;;;;;;;11.95;6.38;;;;;;;2.51;100.00;95155.19;1027212;28;20034;-63
2024/02/25 01:01:26;;;;;;;12.73;6.82;;;;;;;2.51;100.00;95153.38;1031555;28;20509;-64
2024/02/25 01:01:56;;;;;;;9.57;6.03;;;;;;;2.50;100.00;95151.81;1035213;28;20080;-62
2024/02/25 01:02:27;;;;;;;15.00;7.63;;;;;;;2.49;100.00;95155.41;1035249;28;20339;-63
2024/02/25 01:02:57;;;;;;;13.23;6.63;;;;;;;2.53;100.00;95150.56;1035183;28;20045;-62
2024/02/25 01:03:28;;;;;;;10.63;6.50;;;;;;;2.50;100.00;95141.44;1035360;28;20026;-63
2024/02/25 01:03:58;;;;;;;14.68;6.75;;;;;;;2.46;100.00;95148.09;1035225;28;20425;-63
2024/02/25 01:04:28;;;;;;;9.45;6.18;;;;;;;2.46;100.00;95152.50;1035378;28;20033;-64
2024/02/25 01:04:59;;;;;;;11.85;6.55;;;;;;;2.45;100.00;95154.31;1026953;28;20019;-63
2024/02/25 01:05:29;;;;;;;10.90;6.18;;;;;;;2.45;100.00;95148.31;1023284;28;20526;-64
2024/02/25 01:06:00;;;;;;;12.48;6.53;;;;;;;2.43;100.00;95152.94;1027206;28;20286;-64
2024/02/25 01:06:30;;;;;;;12.43;6.22;;;;;;;2.45;100.00;95153.50;1027413;28;20605;-63
2024/02/25 01:07:01;;;;;;;15.07;7.15;;;;;;;2.43;100.00;95156.31;1029521;28;20082;-63
2024/02/25 01:07:31;;;;;;;14.40;7.30;;;;;;;2.46;100.00;95155.09;1027045;28;20030;-63
2024/02/25 01:08:03;;;;;;;11.68;6.95;;;;;;;2.44;100.00;95157.09;1031360;28;20077;-63
2024/02/25 01:08:39;;;;;;;13.55;6.85;;;;;;;2.44;100.00;95157.88;1031197;28;20580;-63
2024/02/25 01:09:10;;;;;;;12.70;7.10;;;;;;;2.42;100.00;95159.16;1035886;28;20276;-64
2024/02/25 01:09:40;;;;;;;10.90;6.65;;;;;;;2.41;100.00;95147.97;1039212;28;20276;-63
2024/02/25 01:10:11;;;;;;;11.88;6.30;;;;;;;2.40;100.00;95159.34;1034575;28;20661;-63
2024/02/25 01:10:41;;;;;;;13.20;6.80;;;;;;;2.40;100.00;95159.34;1031984;28;20022;-63
2024/02/25 01:11:12;;;;;;;13.68;7.15;;;;;;;2.38;100.00;95156.19;1030971;28;20034;-63
2024/02/25 01:11:42;;;;;;;10.90;6.13;;;;;;;2.39;100.00;95157.78;1031207;28;20085;-63
2024/02/25 01:12:13;;;;;;;12.30;6.65;;;;;;;2.39;100.00;95155.19;1035262;28;20026;-63
2024/02/25 01:12:43;;;;;;;12.27;6.53;;;;;;;2.37;100.00;95152.03;1035257;28;20438;-63
2024/02/25 01:13:14;;;;;;;13.45;6.72;;;;;;;2.40;100.00;95156.78;1031194;28;20031;-64
2024/02/25 01:13:47;;;;;;;11.90;6.78;;;;;;;2.41;100.00;95150.56;1031044;28;20046;-63
2024/02/25 01:14:18;;;;;;;12.25;6.68;;;;;;;2.44;100.00;95159.69;1030809;28;20057;-63
2024/02/25 01:14:49;;;;;;;11.57;6.80;;;;;;;2.43;100.00;95156.31;1031788;28;20315;-63
2024/02/25 01:15:19;;;;;;;12.55;5.97;;;;;;;2.46;100.00;95155.88;1035190;28;20269;-62
2024/02/25 01:15:49;;;;;;;9.75;5.68;;;;;;;2.43;100.00;95153.72;1031196;28;20084;-63
2024/02/25 01:16:20;;;;;;;13.55;7.30;;;;;;;2.45;100.00;95149.13;1035410;28;20030;-62
2024/02/25 01:16:51;;;;;;;12.48;6.50;;;;;;;2.48;100.00;95153.03;1019075;29;20032;-63
2024/02/25 01:17:21;;;;;;;14.25;6.55;;;;;;;2.49;100.00;95146.88;1022980;28;20454;-63
2024/02/25 01:17:52;;;;;;;9.90;6.20;;;;;;;2.51;100.00;95153.38;1022905;29;20444;-63
2024/02/25 01:18:22;;;;;;;12.75;6.95;;;;;;;2.48;100.00;95158.22;1023324;28;20027;-63
2024/02/25 01:18:53;;;;;;;12.85;6.43;;;;;;;2.50;100.00;95146.63;1035496;28;20076;-63
2024/02/25 01:19:23;;;;;;;9.88;6.15;;;;;;;2.49;100.00;95144.28;1039062;28;20040;-63
2024/02/25 01:19:54;;;;;;;11.98;6.30;;;;;;;2.47;100.00;95143.72;1038983;28;20033;-63
2024/02/25 01:20:24;;;;;;;14.18;6.78;;;;;;;2.49;100.00;95145.06;1038898;28;20119;-63
2024/02/25 01:20:55;;;;;;;10.48;5.85;;;;;;;2.52;100.00;95147.22;1039029;28;20029;-63
2024/02/25 01:21:25;;;;;;;10.30;6.55;;;;;;;2.55;100.00;95140.78;1035260;28;20350;-63
2024/02/25 01:21:55;;;;;;;13.20;6.63;;;;;;;2.55;100.00;95141.56;1030873;28;20033;-63
2024/02/25 01:22:26;;;;;;;11.55;5.90;;;;;;;2.54;100.00;95147.75;1031000;28;20041;-63
2024/02/25 01:22:56;;;;;;;10.88;6.00;;;;;;;2.56;100.00;95144.94;1035315;28;20042;-63
2024/02/25 01:23:27;;;;;;;10.15;5.90;;;;;;;2.56;100.00;95143.13;1039159;28;20509;-63
2024/02/25 01:23:57;;;;;;;13.63;5.97;;;;;;;2.54;100.00;95142.56;1030804;28;20517;-63
2024/02/25 01:24:28;;;;;;;10.15;5.50;;;;;;;2.55;100.00;95135.63;1034501;28;20029;-63
2024/02/25 01:24:58;;;;;;;12.35;6.93;;;;;;;2.52;100.00;95133.47;1031003;28;20030;-61
2024/02/25 01:25:29;;;;;;;11.02;5.65;;;;;;;2.55;100.00;95133.81;1027140;28;20066;-63
2024/02/25 01:25:59;;;;;;;10.05;5.68;;;;;;;2.57;100.00;95141.34;1026869;28;20511;-63
2024/02/25 01:26:29;;;;;;;11.73;6.53;;;;;;;2.59;100.00;95140.09;1022574;28;20035;-63
2024/02/25 01:27:00;;;;;;;10.30;5.40;;;;;;;2.59;100.00;95134.94;1018575;29;20104;-63
2024/02/25 01:27:31;;;;;;;11.15;5.97;;;;;;;2.61;100.00;95137.28;1019481;28;20467;-63
2024/02/25 01:28:02;;;;;;;12.27;5.80;;;;;;;2.60;100.00;95131.31;1023333;28;20026;-63
2024/02/25 01:28:33;;;;;;;11.40;6.80;;;;;;;2.59;100.00;95134.94;1031269;28;20289;-63
2024/02/25 01:29:04;;;;;;;13.40;6.50;;;;;;;2.57;100.00;95134.34;1035288;28;20026;-63
2024/02/25 01:29:34;;;;;;;11.48;6.22;;;;;;;2.59;100.00;95129.75;1039373;28;20025;-63
2024/02/25 01:30:06;;;;;;;13.52;5.93;;;;;;;2.62;100.00;95135.50;1034891;28;20327;-63
2024/02/25 01:30:36;;;;;;;13.02;5.80;;;;;;;2.58;100.00;95133.34;1030340;28;20030;-63
2024/02/25 01:31:06;;;;;;;11.13;6.20;;;;;;;2.62;100.00;95130.31;1033107;28;20265;-63
2024/02/25 01:31:43;;;;;;;12.98;6.57;;;;;;;2.62;100.00;95131.09;1035238;28;20540;-63
2024/02/25 01:32:16;;;;;;;11.27;6.53;;;;;;;2.60;100.00;95135.72;1039048;28;20045;-63
2024/02/25 01:32:46;;;;;;;13.57;6.40;;;;;;;2.60;100.00;95136.50;1036248;28;20268;-63
2024/02/25 01:33:17;;;;;;;14.48;6.18;;;;;;;2.61;100.00;95132.09;1039026;28;20264;-63
2024/02/25 01:33:47;;;;;;;13.23;6.15;;;;;;;2.59;100.00;95132.34;1038168;28;20135;-66
2024/02/25 01:34:19;;;;;;;14.95;6.47;;;;;;;2.58;100.00;95130.78;1038836;28;20038;-62
2024/02/25 01:34:50;;;;;;;12.45;5.50;;;;;;;2.57;100.00;95125.78;1039229;28;20109;-63
2024/02/25 01:35:20;;;;;;;9.68;5.25;;;;;;;2.64;100.00;95130.84;1039245;28;20267;-63
2024/02/25 01:35:51;;;;;;;10.52;5.88;;;;;;;2.64;100.00;95125.69;1035031;28;20485;-63
2024/02/25 01:36:21;;;;;;;13.07;6.28;;;;;;;2.56;100.00;95119.84;1033990;28;20026;-63
2024/02/25 01:36:52;;;;;;;9.88;6.00;;;;;;;2.54;100.00;95111.50;1035334;28;20032;-63
2024/02/25 01:37:23;;;;;;;9.52;5.47;;;;;;;2.62;100.00;95127.72;1030917;28;20532;-62
2024/02/25 01:37:53;;;;;;;9.35;5.88;;;;;;;2.60;100.00;95126.13;1030919;28;20037;-63
2024/02/25 01:38:24;;;;;;;9.20;5.43;;;;;;;2.61;100.00;95121.72;1034756;28;20038;-63
2024/02/25 01:38:56;;;;;;;9.80;5.05;;;;;;;2.59;100.00;95116.78;1030964;28;20398;-64
2024/02/25 01:39:27;;;;;;;14.25;6.25;;;;;;;2.62;100.00;95120.75;1033088;28;20037;-62
2024/02/25 01:39:57;;;;;;;10.70;5.47;;;;;;;2.60;100.00;95115.78;1034757;28;20768;-64
2024/02/25 01:40:28;;;;;;;13.82;5.72;;;;;;;2.61;100.00;95119.16;1026251;28;20031;-63
2024/02/25 01:40:58;;;;;;;12.68;6.65;;;;;;;2.60;100.00;95120.94;1027084;28;20054;-63
2024/02/25 01:41:29;;;;;;;14.77;6.28;;;;;;;2.60;100.00;95115.78;1019402;29;20174;-62
2024/02/25 01:41:59;;;;;;;9.52;5.68;;;;;;;2.59;100.00;95116.78;1019176;28;20048;-62
2024/02/25 01:42:30;;;;;;;10.75;6.30;;;;;;;2.60;100.00;95120.94;1030907;28;20034;-62
2024/02/25 01:43:10;;;;;;;14.20;6.18;;;;;;;2.54;100.00;95116.69;1030926;28;20734;-63
2024/02/25 01:43:41;;;;;;;8.82;5.75;;;;;;;2.60;100.00;95115.00;1036657;28;20747;-63
2024/02/25 01:44:11;;;;;;;10.73;5.90;;;;;;;2.62;100.00;95120.75;1039024;28;20036;-63
2024/02/25 01:44:56;;;;;;;11.73;6.28;;;;;;;2.64;100.00;95121.28;1032928;28;20034;-63
2024/02/25 01:45:26;;;;;;;11.52;5.72;;;;;;;2.63;100.00;95119.72;1027245;28;20138;-64
2024/02/25 01:45:57;;;;;;;15.00;5.80;;;;;;;2.65;100.00;95127.25;1030955;28;20269;-64
2024/02/25 01:46:28;;;;;;;11.80;5.90;;;;;;;2.67;100.00;95122.63;1035365;28;20038;-63
2024/02/25 01:46:58;;;;;;;11.60;6.30;;;;;;;2.65;100.00;95122.88;1035098;28;20348;-63
2024/02/25 01:47:29;;;;;;;8.75;5.65;;;;;;;2.66;100.00;95118.47;1035107;28;20037;-63
2024/02/25 01:47:59;;;;;;;10.93;5.72;;;;;;;2.67;100.00;95122.63;1034967;28;20140;-63
2024/02/25 01:48:32;;;;;;;10.32;5.95;;;;;;;2.64;100.00;95115.31;1034773;28;20038;-63
2024/02/25 01:49:02;;;;;;;10.55;5.72;;;;;;;2.63;100.00;95122.31;1031095;28;20019;-63
2024/02/25 01:49:32;;;;;;;10.68;5.72;;;;;;;2.58;100.00;95111.81;1030979;28;20340;-63
2024/02/25 01:50:04;;;;;;;9.73;5.10;;;;;;;2.63;100.00;95121.53;1027108;28;20022;-63
2024/02/25 01:50:35;;;;;;;10.52;5.80;;;;;;;2.56;100.00;95109.47;1022410;29;20091;-64
2024/02/25 01:51:05;;;;;;;12.60;6.40;;;;;;;2.57;100.00;95113.63;1020170;29;20267;-63
2024/02/25 01:51:35;;;;;;;12.13;5.65;;;;;;;2.60;100.00;95122.75;1023108;29;20479;-63
2024/02/25 01:52:06;;;;;;;8.70;5.13;;;;;;;2.62;100.00;95128.50;1026816;28;20014;-63
2024/02/25 01:52:36;;;;;;;10.07;5.38;;;;;;;2.60;100.00;95120.94;1026964;28;20026;-63
2024/02/25 01:53:07;;;;;;;9.32;5.60;;;;;;;2.60;100.00;95126.13;1022968;28;20511;-63
2024/02/25 01:53:38;;;;;;;7.57;4.97;;;;;;;2.62;100.00;95130.31;1022837;28;20011;-63
2024/02/25 01:54:08;;;;;;;9.90;5.32;;;;;;;2.64;100.00;95128.28;1027006;28;20548;-63
2024/02/25 01:54:39;;;;;;;10.13;5.70;;;;;;;2.62;100.00;95132.91;1027157;28;20023;-63
2024/02/25 01:55:09;;;;;;;10.57;5.53;;;;;;;2.65;100.00;95132.44;1026671;28;20034;-63
2024/02/25 01:55:40;;;;;;;11.98;5.88;;;;;;;2.65;100.00;95135.00;1027037;28;20034;-64
2024/02/25 01:56:11;;;;;;;11.88;5.53;;;;;;;2.66;100.00;95134.03;1026966;28;20062;-64
2024/02/25 01:56:43;;;;;;;9.77;5.78;;;;;;;2.63;100.00;95129.28;1023077;28;20506;-64
2024/02/25 01:57:14;;;;;;;10.00;5.63;;;;;;;2.62;100.00;95131.09;1027186;28;20349;-63
2024/02/25 01:57:44;;;;;;;8.45;5.47;;;;;;;2.64;100.00;95136.03;1027280;28;20284;-63
2024/02/25 01:58:14;;;;;;;13.20;6.25;;;;;;;2.64;100.00;95136.03;1023409;28;20078;-63
2024/02/25 01:58:46;;;;;;;10.82;6.00;;;;;;;2.64;100.00;95136.81;1020548;28;20015;-63
2024/02/25 01:59:16;;;;;;;10.85;5.18;;;;;;;2.63;100.00;95127.50;1026821;28;20109;-63
2024/02/25 01:59:47;;;;;;;9.23;5.57;;;;;;;2.63;100.00;95135.25;1019146;29;20259;-62
2024/02/25 02:00:18;;;;;;;10.25;5.15;;;;;;;2.56;100.00;95125.00;1019428;28;20023;-64
2024/02/25 02:00:49;;;;;;;13.20;5.85;;;;;;;2.61;100.00;95132.09;1026995;28;20254;-63
2024/02/25 02:01:19;;;;;;;13.02;4.95;;;;;;;2.59;100.00;95134.13;1027319;28;20422;-63
2024/02/25 02:01:49;;;;;;;8.30;4.57;;;;;;;2.60;100.00;95139.06;1023052;28;20024;-63
2024/02/25 02:02:20;;;;;;;9.75;5.45;;;;;;;2.62;100.00;95132.91;1023826;28;20024;-63
2024/02/25 02:02:50;;;;;;;9.20;5.43;;;;;;;2.62;100.00;95132.91;1026886;28;20018;-63
2024/02/25 02:03:21;;;;;;;9.60;5.90;;;;;;;2.62;100.00;95135.50;1034261;28;20834;-64
2024/02/25 02:03:51;;;;;;;12.93;5.63;;;;;;;2.62;100.00;95130.31;1041769;28;20024;-64
2024/02/25 02:04:22;;;;;;;9.43;5.25;;;;;;;2.60;100.00;95133.91;1039341;28;20040;-63
2024/02/25 02:04:52;;;;;;;10.10;5.55;;;;;;;2.61;100.00;95126.91;1039380;28;20523;-63
2024/02/25 02:05:23;;;;;;;11.80;4.97;;;;;;;2.63;100.00;95132.66;1038938;28;20025;-64
2024/02/25 02:05:53;;;;;;;16.23;5.75;;;;;;;2.64;100.00;95130.84;1034936;28;20034;-63
2024/02/25 02:06:24;;;;;;;8.85;4.97;;;;;;;2.60;100.00;95131.31;1030899;28;20026;-63
2024/02/25 02:06:55;;;;;;;11.98;5.13;;;;;;;2.60;100.00;95127.94;1030139;28;20026;-63
2024/02/25 02:07:25;;;;;;;14.68;4.80;;;;;;;2.60;100.00;95131.31;1029811;28;20029;-63
2024/02/25 02:07:56;;;;;;;9.02;4.57;;;;;;;2.64;100.00;95125.69;1031165;28;20256;-63
2024/02/25 02:08:27;;;;;;;12.70;5.55;;;;;;;2.64;100.00;95130.84;1030698;28;20494;-64
2024/02/25 02:08:57;;;;;;;12.00;4.78;;;;;;;2.60;100.00;95131.31;1028399;28;20074;-63
2024/02/25 02:09:30;;;;;;;7.93;4.32;;;;;;;2.63;100.00;95131.88;1030822;28;20380;-62
2024/02/25 02:10:00;;;;;;;7.93;4.65;;;;;;;2.62;100.00;95128.50;1030860;28;20088;-63
2024/02/25 02:10:31;;;;;;;6.28;4.07;;;;;;;2.59;100.00;95123.78;1031157;28;20273;-63
2024/02/25 02:11:17;;;;;;;9.23;5.10;;;;;;;2.62;100.00;95131.09;1034922;28;20409;-63
2024/02/25 02:11:57;;;;;;;6.82;4.60;;;;;;;2.61;100.00;95126.91;1030876;28;20579;-64
2024/02/25 02:12:28;;;;;;;9.07;4.50;;;;;;;2.63;100.00;95131.88;1029377;28;20266;-61
2024/02/25 02:13:01;;;;;;;9.52;4.68;;;;;;;2.60;100.00;95125.34;1037846;28;20401;-63
2024/02/25 02:13:31;;;;;;;12.70;5.70;;;;;;;2.63;100.00;95126.69;1032725;28;20038;-64
2024/02/25 02:14:02;;;;;;;8.80;4.85;;;;;;;2.58;100.00;95120.41;1025599;28;20678;-63
2024/02/25 02:14:32;;;;;;;11.98;5.25;;;;;;;2.63;100.00;95129.28;1026826;28;20149;-63
2024/02/25 02:15:03;;;;;;;7.50;5.10;;;;;;;2.55;100.00;95118.28;1026929;28;20023;-63
2024/02/25 02:15:34;;;;;;;9.98;5.10;;;;;;;2.59;100.00;95124.56;1031021;28;20026;-64
2024/02/25 02:16:04;;;;;;;14.25;6.07;;;;;;;2.62;100.00;95130.31;1030830;28;20521;-64
2024/02/25 02:16:35;;;;;;;13.80;4.97;;;;;;;2.63;100.00;95126.69;1023106;28;20023;-63
2024/02/25 02:17:06;;;;;;;14.40;5.82;;;;;;;2.62;100.00;95128.50;1026896;28;20026;-63
2024/02/25 02:17:40;;;;;;;14.05;5.35;;;;;;;2.65;100.00;95132.44;1024039;28;20023;-63
2024/02/25 02:18:12;;;;;;;8.93;4.63;;;;;;;2.65;100.00;95122.06;1024167;28;20274;-63
2024/02/25 02:18:43;;;;;;;9.65;4.85;;;;;;;2.62;100.00;95122.53;1031888;28;20265;-63
2024/02/25 02:19:14;;;;;;;15.35;4.97;;;;;;;2.65;100.00;95122.06;1031666;28;20277;-64
2024/02/25 02:19:46;;;;;;;10.88;4.68;;;;;;;2.64;100.00;95128.28;1031572;28;20030;-63
2024/02/25 02:20:18;;;;;;;8.68;4.65;;;;;;;2.64;100.00;95120.50;1030308;28;20030;-63
2024/02/25 02:20:48;;;;;;;10.25;5.00;;;;;;;2.66;100.00;95127.03;1027235;28;20281;-64
2024/02/25 02:21:19;;;;;;;9.18;4.25;;;;;;;2.65;100.00;95122.88;1030919;28;20276;-63
2024/02/25 02:21:54;;;;;;;7.68;3.97;;;;;;;2.66;100.00;95121.84;1030949;28;20026;-63
2024/02/25 02:22:25;;;;;;;7.65;4.38;;;;;;;2.67;100.00;95125.22;1027182;28;20039;-64
2024/02/25 02:22:55;;;;;;;8.13;4.40;;;;;;;2.67;100.00;95126.00;1026484;28;20278;-63
2024/02/25 02:23:25;;;;;;;8.85;4.40;;;;;;;2.68;100.00;95124.19;1029214;28;20027;-63
2024/02/25 02:23:57;;;;;;;7.28;3.90;;;;;;;2.68;100.00;95124.19;1033730;28;20018;-63